Hoppa till innehåll

METAR väder och rapporter - EHAM

Nedan listas information från vald flygplats. Andra METARs finns längre ned på sidan. Kontakta oss om någon saknas eller skriv in egen ICAO-kod.

Coded METAR: 2019/01/23 05:55 EHAM 230555Z 13007KT 8000 BKN008 M01/M02 Q0998 BECMG 7000 FEW008 BKN010

Weather Report @ EHAM

Issued: 23rd Jan 2019 at 06:55 CET

Wind: gentle breeze from the Southeast (130 degrees) at 7 knots (8 mph, 13 kph, 4 mps, Force 3)
Visibility: 8000 metres
Cloud: broken at 800 feet
Temperature: 30F / -1C
Dewpoint: 28F / -2C
Humidity: 93%
Pressure: 0998 hPa
Pressure: 0998 hPa
Visibility: 7000 metres
Cloud: a few clouds at 800 feet
Cloud: broken at 1000 feet

Coded TAF: 2019/01/23 06:27 TAF TAF EHAM 230515Z 2306/2412 11005KT 7000 BKN010 BECMG 2307/2309 06007KT 9999 SCT025 PROB30 TEMPO 2309/2321 6000 BKN015 PROB40 2402/2408 VRB02KT 6000 MIFG

Weather Forecast @ EHAM

Issued: 23rd Jan 2019 at 07:27 CET

Valid : 23rd Jan 07:00 until 24th Jan 13:00 CET

07:00 CET
Wind: light breeze from East-Southeast (110 degrees) at 5 knots (6 mph, 9 kph, 3 mps, Force 2)
Visibility: 7000 metres
Cloud: broken at 1000 feet

08:00 CET to 10:00 CET
becoming:

Wind: gentle breeze from East-North East (060 degrees) at 7 knots (8 mph, 13 kph, 4 mps, Force 3)
Visibility: 10km or more
Cloud: scattered at 2500 feet

01:00 CET to 01:00 CET
there is a 30% chance of:


10:00 CET to 22:00 CET
Occasional

Visibility: 6000 metres
Cloud: broken at 1500 feet

03:00 CET to 09:00 CET
there is a 40% chance of:

Wind: variable light air at 2 knots (2 mph, 4 kph, 1 mps, Force 1)
Visibility: 6000 metres
Weather: shallow fog

Internet delivery of weather data is not secure or reliable enough for operational purposes.

NEVER RELY ON THE OUTPUT OF THIS SCRIPT TO MAKE DECISIONS ABOUT ANYTHING IN WHICH THE WEATHER FORECAST AND ITS INTERPRETATION COULD BE AN ISSUE OF SAFETY.

Andra intressanta METARs

Klicka på önskad rubrik nedan för att visa nuvarande väder för den platsen.

Avstånd från stationen: NO 27kmESGG - Göteborg (Landvetter)
Uppdaterad: 2019-01-23 06:50
 Vind från SO
Vind: SO 17 km/h
Temperatur: -4°C
Vindavkylning: -9°C
Daggpunkt: -5°C
Luftfuktighet: 93%
Barometer: 1005 hPa
Moln: Övervägande molnigt
Sikt: 10 km
Molninformation: Övervägande molnigt 213 m
2019/01/23 05:50 ESGG 230550Z 14009KT 9999 BKN007 M04/M05 Q1005 R21/29//95
Övervägande molnigt
Övervägande molnigt
  Visa detaljer för Göteborg (Landvetter)
Avstånd från stationen: N 28kmESGP - Göteborg (Säve)
Uppdaterad: 2017-01-02 11:20
Ej aktuell
 Vind från calm
Vind: Vindstilla
Temperatur: -2°C
Daggpunkt: -4°C
Luftfuktighet: 86%
Barometer: 1012 hPa
Moln: Klart
Sikt: 10 km
2017/01/02 10:20 ESGP 021020Z AUTO 00000KT 9999 NCD M02/M04 Q1012
Klart
Klart
  Visa detaljer för Göteborg (Säve)
Avstånd från stationen: NO 419kmESSA - Stockholm (Arlanda)
Uppdaterad: 2019-01-23 06:50
 Vind från VNV
Vind: VNV 6 km/h
Temperatur: -2°C
Daggpunkt: -3°C
Luftfuktighet: 93%
Barometer: 1007 hPa
Summering: Dimmigt
Moln: Genommulet
Sikt: 5 km
Molninformation: Genommulet 91 m
2019/01/23 05:50 ESSA 230550Z 30003KT 4600 BR OVC003 M02/M03 Q1007 R01L/71//63 R08/71//67 R01R/72//75 TEMPO BKN005
Dimmigt, Genommulet
Dimmigt
Genommulet
  Visa detaljer för Stockholm (Arlanda)
Avstånd från stationen: ONO 404kmESSB - Stockholm (Bromma)
Uppdaterad: 2019-01-23 06:50
 Vind från calm
Vind: Vindstilla
Temperatur: -2°C
Daggpunkt: -2°C
Luftfuktighet: 100%
Barometer: 1007 hPa
Summering: Dimmigt
Moln: Genommulet
Sikt: 2 km
Molninformation: Genommulet 61 m
2019/01/23 05:50 ESSB 230550Z 00000KT 2300 BR OVC002 M02/M02 Q1007 R12/29//95
Dimmigt, Genommulet
Dimmigt
Genommulet
  Visa detaljer för Stockholm (Bromma)
Avstånd från stationen: ONO 323kmESKN - Stockholm (Skavsta)
Uppdaterad: 2019-01-23 06:50
 Vind från calm
Vind: Vindstilla
Temperatur: -2°C
Daggpunkt: -2°C
Luftfuktighet: 100%
Barometer: 1007 hPa
Summering: Dimmigt
Moln: Genommulet
Sikt: 4 km
Molninformation: Genommulet 366 m
2019/01/23 05:50 ESKN 230550Z 00000KT 3500 BR OVC012 M02/M02 Q1007 R26/490295
Dimmigt, Genommulet
Dimmigt
Genommulet
  Visa detaljer för Stockholm (Skavsta)
Avstånd från stationen: SSO 238kmESMS - Malmö flygplats (Sturup)
Uppdaterad: 2019-01-23 06:50
 Vind från SO
Vind: SO 17 km/h
Temperatur: -2°C
Vindavkylning: -7°C
Daggpunkt: -4°C
Luftfuktighet: 86%
Barometer: 1006 hPa
Summering: Dimmigt
Moln: Övervägande molnigt
Sikt: 7 km
Molninformation: Övervägande molnigt 396 m
Övervägande molnigt 488 m
2019/01/23 05:50 ESMS 230550Z 14009KT 7000 BR BKN013 BKN016 M02/M04 Q1006 R17/19//95
Dimmigt, Övervägande molnigt
Dimmigt
Övervägande molnigt
  Visa detaljer för Malmö flygplats (Sturup)
Avstånd från stationen: O 382kmESSV - Visby flygplats
Uppdaterad: 2019-01-23 06:50
 Vind från SSO
Vind: SSO 9 km/h
Temperatur: 0°C
Vindavkylning: -3°C
Daggpunkt: -1°C
Luftfuktighet: 93%
Barometer: 1008 hPa
Summering: Light Snow
Moln: Övervägande molnigt
Sikt: 9 km
Molninformation: Några få moln 610 m
Övervägande molnigt 1189 m
2019/01/23 05:50 ESSV 230550Z 16005KT 9000 -SN FEW020 BKN039 M00/M01 Q1008 R21/79//43
Light snow, Övervägande molnigt
Light snow
Övervägande molnigt
  Visa detaljer för Visby flygplats
Avstånd från stationen: NNO 92kmESGT - Trollhättan
Uppdaterad: 2019-01-22 23:20
Ej aktuell
 Vind från SSO
Vind: SSO 6 km/h
Temperatur: -4°C
Daggpunkt: -5°C
Luftfuktighet: 93%
Barometer: 1007 hPa
Moln: Genommulet
Sikt: 10 km
Molninformation: Genommulet 1433 m
2019/01/22 22:20 ESGT 222220Z AUTO 16003KT 9999 OVC047/// M04/M05 Q1007
Genommulet
Genommulet
  Visa detaljer för Trollhättan
Avstånd från stationen: ONO 129kmESGJ - Jönköpings flygplats
Uppdaterad: 2019-01-23 06:50
 Vind från SO
Vind: SO 6 km/h
Temperatur: -5°C
Daggpunkt: -6°C
Luftfuktighet: 93%
Barometer: 1006 hPa
Summering: Klart
Sikt: mer än 10 km
2019/01/23 05:50 ESGJ 230550Z 13003KT CAVOK M05/M06 Q1006 R01/00//70
Klart
Klart
  Visa detaljer för Jönköpings flygplats
Avstånd från stationen: NNO 229kmESOK - Karlstad
Uppdaterad: 2019-01-23 06:50
 Vind från ONO
Vind: ONO 6 km/h
Temperatur: -4°C
Daggpunkt: -4°C
Luftfuktighet: 100%
Barometer: 1006 hPa
Moln: Övervägande molnigt
Sikt: 7 km
Molninformation: Några få moln 61 m
Övervägande molnigt 1280 m
2019/01/23 05:50 ESOK 230550Z 06003KT 7000 FEW002 BKN042 M04/M04 Q1006
Övervägande molnigt
Övervägande molnigt
  Visa detaljer för Karlstad
Avstånd från stationen: N 643kmESNZ - Östersund (Frösön)
Uppdaterad: 2019-01-23 06:50
 Vind från VNV
Vind: VNV 4 km/h
Temperatur: -13°C
Daggpunkt: -15°C
Luftfuktighet: 85%
Barometer: 1002 hPa
Moln: Genommulet
Sikt: 10 km
Molninformation: Genommulet 122 m
2019/01/23 05:50 ESNZ 230550Z 30002KT 9999 OVC004 M13/M15 Q1002
Genommulet
Genommulet
  Visa detaljer för Östersund (Frösön)
Avstånd från stationen: SSO 216kmEKCH - Köpenhamn (Kastrup)
Uppdaterad: 2019-01-23 06:50
 Vind från SSO
Vind: SSO 28 km/h
Temperatur: -1°C
Vindavkylning: -8°C
Daggpunkt: -4°C
Luftfuktighet: 80%
Barometer: 1006 hPa
Moln: Övervägande molnigt
Sikt: 9 km
Molninformation: Övervägande molnigt 488 m
2019/01/23 05:50 EKCH 230550Z 15015KT 9000 BKN016 M01/M04 Q1006 R04L/310178 R04R/310181 R12/310186 NOSIG
Övervägande molnigt
Övervägande molnigt
  Visa detaljer för Köpenhamn (Kastrup)
Avstånd från stationen: SV 263kmEKBI - Billund Airport
Uppdaterad: 2019-01-23 06:50
 Vind från SO
Vind: SO 9 km/h
Temperatur: -3°C
Vindavkylning: -7°C
Daggpunkt: -4°C
Luftfuktighet: 93%
Barometer: 1002 hPa
Moln: Genommulet
Sikt: 7 km
Molninformation: Genommulet 457 m
2019/01/23 05:50 EKBI 230550Z AUTO 14005KT 7000 OVC015/// M03/M04 Q1002
Genommulet
Genommulet
  Visa detaljer för Billund Airport
Avstånd från stationen: N 302kmENGM - Oslo (Gardermoen)
Uppdaterad: 2019-01-23 06:50
 Vind från varierande
Vind: varierande 2 km/h
Temperatur: -5°C
Daggpunkt: -6°C
Luftfuktighet: 93%
Barometer: 1005 hPa
Moln: Genommulet
Sikt: 9 km
Molninformation: Genommulet 152 m
2019/01/23 05:50 ENGM 230550Z VRB01KT 9000 OVC005 M05/M06 Q1005 TEMPO OVC004
Genommulet
Genommulet
  Visa detaljer för Oslo (Gardermoen)
Avstånd från stationen: NO 540kmEFMA - Mariehamn / Åland
Uppdaterad: 2019-01-23 06:50
 Vind från varierande
Vind: varierande 2 km/h
Temperatur: -3°C
Daggpunkt: -4°C
Luftfuktighet: 93%
Barometer: 1007 hPa
Summering: Light Snow
Moln: Genommulet
Sikt: 9 km
Molninformation: Genommulet 1433 m
2019/01/23 05:50 EFMA 230550Z AUTO VRB01KT 9000 -SN OVC047 M03/M04 Q1007
Light snow, Genommulet
Light snow
Genommulet
  Visa detaljer för Mariehamn / Åland
Avstånd från stationen: S 558kmEDDT - Berlin (Tegel), Germany
Uppdaterad: 2019-01-23 06:50
 Vind från OSO
Vind: OSO 20 km/h
Temperatur: -7°C
Vindavkylning: -14°C
Daggpunkt: -9°C
Luftfuktighet: 86%
Barometer: 1005 hPa
Moln: Övervägande molnigt
Sikt: 6 km
Molninformation: Övervägande molnigt 244 m
2019/01/23 05:50 EDDT 230550Z 12011KT 080V140 6000 BKN008 M07/M09 Q1005 TEMPO 3500 BR
Övervägande molnigt
Övervägande molnigt
  Visa detaljer för Berlin (Tegel), Germany
Avstånd från stationen: SV 737kmEHAM - Amsterdam (Schiphol)
Uppdaterad: 2019-01-23 06:55
 Vind från SO
Vind: SO 13 km/h
Temperatur: -1°C
Vindavkylning: -6°C
Daggpunkt: -2°C
Luftfuktighet: 93%
Barometer: 998 hPa
Moln: Övervägande molnigt
Sikt: 8 km
Molninformation: Övervägande molnigt 244 m
2019/01/23 05:55 EHAM 230555Z 13007KT 8000 BKN008 M01/M02 Q0998 BECMG 7000 FEW008 BKN010
Övervägande molnigt
Övervägande molnigt
  Visa detaljer för Amsterdam (Schiphol)
Avstånd från stationen: ONO 808kmEFHK - Helsingfors (Vantaa)
Uppdaterad: 2019-01-23 06:50
 Vind från S
Vind: S 17 km/h
Temperatur: -3°C
Vindavkylning: -8°C
Daggpunkt: -3°C
Luftfuktighet: 100%
Barometer: 1008 hPa
Summering: Light Snow
Moln: Övervägande molnigt
Sikt: 4 km
Molninformation: Övervägande molnigt 183 m
2019/01/23 05:50 EFHK 230550Z 17009KT 3500 -SN BKN006 M03/M03 Q1008 TEMPO 1200 SN
Light snow, Övervägande molnigt
Light snow
Övervägande molnigt
  Visa detaljer för Helsingfors (Vantaa)
Avstånd från stationen: SSV 537kmEDDW - Bremen
Uppdaterad: 2019-01-23 06:50
 Vind från OSO
Vind: OSO 11 km/h
Temperatur: -6°C
Vindavkylning: -11°C
Daggpunkt: -8°C
Luftfuktighet: 86%
Barometer: 1001 hPa
Moln: Några få moln
Sikt: 7 km
Molninformation: Några få moln 792 m
2019/01/23 05:50 EDDW 230550Z 11006KT 7000 FEW026 M06/M08 Q1001 NOSIG
Några få moln
Några få moln
  Visa detaljer för Bremen
Avstånd från stationen: SSV 861kmEDDF - Frankfurt am Main
Uppdaterad: 2019-01-23 06:50
 Vind från O
Vind: O 15 km/h
Temperatur: -2°C
Vindavkylning: -7°C
Daggpunkt: -7°C
Luftfuktighet: 69%
Barometer: 999 hPa
Moln: Övervägande molnigt
Sikt: 10 km
Molninformation: Övervägande molnigt 701 m
2019/01/23 05:50 EDDF 230550Z 08008KT 9999 BKN023 M02/M07 Q0999 NOSIG
Övervägande molnigt
Övervägande molnigt
  Visa detaljer för Frankfurt am Main
Avstånd från stationen: SV 880kmEBBR - Bryssel international
Uppdaterad: 2019-01-23 06:50
 Vind från OSO
Vind: OSO 7 km/h
Temperatur: -2°C
Vindavkylning: -6°C
Daggpunkt: -3°C
Luftfuktighet: 93%
Barometer: 995 hPa
Summering: Light Snow
Moln: Övervägande molnigt
Sikt: 6 km
Molninformation: Några få moln 183 m
Övervägande molnigt 640 m
2019/01/23 05:50 EBBR 230550Z 11004KT 6000 -SN FEW006 BKN021 M02/M03 Q0995 TEMPO 3000 -SN BKN006
Light snow, Övervägande molnigt
Light snow
Övervägande molnigt
  Visa detaljer för Bryssel international
Avstånd från stationen: SV 738kmEHAM - Amsterdam (Schiphol)
Uppdaterad: 2019-01-23 06:55
 Vind från SO
Vind: SO 13 km/h
Temperatur: -1°C
Vindavkylning: -6°C
Daggpunkt: -2°C
Luftfuktighet: 93%
Barometer: 998 hPa
Moln: Övervägande molnigt
Sikt: 8 km
Molninformation: Övervägande molnigt 244 m
2019/01/23 05:55 EHAM 230555Z 13007KT 8000 BKN008 M01/M02 Q0998 BECMG 7000 FEW008 BKN010
Övervägande molnigt
Övervägande molnigt
  Visa detaljer för Amsterdam (Schiphol)
Avstånd från stationen: SV 1044kmEGLL - London (Heathrow)
Uppdaterad: 2019-01-23 06:50
 Vind från NV
Vind: NV 13 km/h
Temperatur: 1°C
Vindavkylning: -3°C
Daggpunkt: 0°C
Luftfuktighet: 93%
Barometer: 998 hPa
Moln: Genommulet
Sikt: 9 km
Molninformation: Genommulet 213 m
2019/01/23 05:50 EGLL 230550Z AUTO 32007KT 300V010 9000 OVC007 01/M00 Q0998 NOSIG
Genommulet
Genommulet
  Visa detaljer för London (Heathrow)
Avstånd från stationen: SV 1132kmLFPG - Paris (Charles de Gaulle)
Uppdaterad: 2019-01-23 07:00
 Vind från SV
Vind: SV 7 km/h
Temperatur: 0°C
Vindavkylning: -3°C
Daggpunkt: 0°C
Luftfuktighet: 100%
Barometer: 994 hPa
Moln: Övervägande molnigt
Sikt: 10 km
Molninformation: Delvis molnigt 152 m
Övervägande molnigt 1920 m
Övervägande molnigt 3658 m
2019/01/23 06:00 LFPG 230600Z 23004KT 9999 SCT005 BKN063 BKN120 00/M00 Q0994 R26/59//50 NOSIG
Övervägande molnigt
Övervägande molnigt
  Visa detaljer för Paris (Charles de Gaulle)
Avstånd från stationen: SSV 1142kmLSZH - Zürich Airport
Uppdaterad: 2019-01-23 06:50
 Vind från OSO
Vind: OSO 7 km/h
Temperatur: -5°C
Vindavkylning: -8°C
Daggpunkt: -7°C
Luftfuktighet: 86%
Barometer: 996 hPa
Moln: Delvis molnigt
Sikt: 6 km
Molninformation: Delvis molnigt 2134 m
2019/01/23 05:50 LSZH 230550Z 12004KT 6000 SCT070 M05/M07 Q0996 NOSIG
Delvis molnigt
Delvis molnigt
  Visa detaljer för Zürich Airport
Avstånd från stationen: S 1749kmLIRF - Rome Airport (Fiumicino - Leonardo da Vinci)
Uppdaterad: 2019-01-23 06:50
 Vind från O
Vind: O 13 km/h
Temperatur: 4°C
Vindavkylning: 1°C
Daggpunkt: 2°C
Luftfuktighet: 87%
Barometer: 999 hPa
Summering: Klart
Sikt: mer än 10 km
2019/01/23 05:50 LIRF 230550Z 10007KT CAVOK 04/02 Q0999 NOSIG
Klart
Klart
  Visa detaljer för Rome Airport (Fiumicino - Leonardo da Vinci)
Avstånd från stationen: SO 2679kmLTAI - Antalya
Uppdaterad: 2019-01-23 06:50
 Vind från N
Vind: N 11 km/h
Temperatur: 9°C
Vindavkylning: 7°C
Daggpunkt: 8°C
Luftfuktighet: 94%
Barometer: 1017 hPa
Moln: Övervägande molnigt
Sikt: 10 km
Molninformation: Övervägande molnigt 914 m
2019/01/23 05:50 LTAI 230550Z 35006KT 290V020 9999 BKN030 09/08 Q1017 NOSIG
Övervägande molnigt
Övervägande molnigt
  Visa detaljer för Antalya
Avstånd från stationen: VSV 6074kmKJFK - New Your (JFK)
Uppdaterad: 2019-01-23 06:51
 Vind från SSV
Vind: SSV 26 km/h
Temperatur: -1°C
Vindavkylning: -7°C
Daggpunkt: -8°C
Luftfuktighet: 59%
Barometer: 1034.2 hPa
Moln: Genommulet
Sikt: 16 km
Molninformation: Genommulet 7925 m
2019/01/23 05:51 KJFK 230551Z 21014KT 10SM OVC260 M01/M08 A3054 RMK AO2 SLP343 T10111083 11006 21033 58022
Genommulet
Genommulet
  Visa detaljer för New Your (JFK)
Avstånd från stationen: VSV 8848kmKLAX - Los Angeles International Airport
Uppdaterad: 2019-01-23 06:53
 Vind från SO
Vind: SO 7 km/h
Temperatur: 13°C
Daggpunkt: -6°C
Luftfuktighet: 26%
Barometer: 1026.8 hPa
Moln: Några få moln
Sikt: 16 km
Molninformation: Några få moln 7620 m
2019/01/23 05:53 KLAX 230553Z 14004KT 10SM FEW250 13/M06 A3032 RMK AO2 SLP266 T01331056 10178 20128 53015
Några få moln
Några få moln
  Visa detaljer för Los Angeles International Airport
Avstånd från stationen: SO 4968kmOMDB - Dubai International Airport
Uppdaterad: 2019-01-23 07:00
 Vind från S
Vind: S 9 km/h
Temperatur: 19°C
Daggpunkt: 13°C
Luftfuktighet: 68%
Barometer: 1018 hPa
Summering: Klart
Sikt: mer än 10 km
2019/01/23 06:00 OMDB 230600Z 18005KT 150V220 CAVOK 19/13 Q1018 BECMG 29010KT
Klart
Klart
  Visa detaljer för Dubai International Airport
Avstånd från stationen: OSO 8570kmRJTT - Tokyo International Airport
Uppdaterad: 2019-01-23 07:00
 Vind från S
Vind: S 28 km/h
Temperatur: 11°C
Daggpunkt: 1°C
Luftfuktighet: 50%
Barometer: 1009 hPa
Moln: Några få moln
Sikt: 10 km
Molninformation: Några få moln 914 m
2019/01/23 06:00 RJTT 230600Z 18015KT 9999 FEW030 11/01 Q1009 NOSIG RMK 1CU030 A2981
Några få moln
Några få moln
  Visa detaljer för Tokyo International Airport
Avstånd från stationen: OSO 7125kmZBAA - Peking (Beijing Capital)
Uppdaterad: 2019-01-23 07:00
 Vind från varierande
Vind: varierande 4 km/h
Temperatur: 12°C
Daggpunkt: -18°C
Luftfuktighet: 11%
Barometer: 1024 hPa
Summering: Klart
Sikt: mer än 10 km
2019/01/23 06:00 ZBAA 230600Z VRB01MPS CAVOK 12/M18 Q1024 NOSIG
Klart
Klart
  Visa detaljer för Peking (Beijing Capital)
VÄDER KURIOSA -  Cloud BaseThe cloud base is the distance from the sea level to the base of the clouds. It is estimated using the current temperature and humidity to indicate an altitude where the air could be cold enough for clouds to form. There may or may not be clouds at that altitude (or at any altitude)